Aviation Digital Data Service (ADDS)

Output produced by METARs form (0343 UTC 26 June 2019)
found at http://www.aviationweather.gov/metar/data/
 
Forecast for: VTUU (UBON/RATCHATHANI, TH)
Text: TAF VTUU 252300Z 2600/2624 19005KT 9999 SCT030
Forecast period: 0000 UTC 26 June 2019 to 0000 UTC 27 June 2019
Forecast type: FROM: standard forecast or significant change
Winds: from the S (190 degrees) at 6 MPH (5 knots; 2.6 m/s)
Visibility: 6 or more miles 10+ km)
Ceiling: at least 12,000 feet AGL
Clouds: scattered clouds at 3000 feet AGL
Weather: no significant weather forecast for this period